sensor_id;sensor_type;location;lat;lon;timestamp;P1;durP1;ratioP1;P2;durP2;ratioP2
34353;SDS011;20618;0.000;0.000;2024-01-11T00:01:48;11.35;;;4.82;;
34353;SDS011;20618;0.000;0.000;2024-01-11T00:04:14;12.05;;;4.78;;
34353;SDS011;20618;0.000;0.000;2024-01-11T00:06:43;13.27;;;4.68;;
34353;SDS011;20618;0.000;0.000;2024-01-11T00:09:10;11.68;;;4.97;;
34353;SDS011;20618;0.000;0.000;2024-01-11T00:11:36;10.25;;;5.05;;
34353;SDS011;20618;0.000;0.000;2024-01-11T00:14:02;10.18;;;4.55;;
34353;SDS011;20618;0.000;0.000;2024-01-11T00:16:29;10.98;;;5.10;;
34353;SDS011;20618;0.000;0.000;2024-01-11T00:18:55;13.15;;;5.32;;
34353;SDS011;20618;0.000;0.000;2024-01-11T00:21:21;11.13;;;5.03;;
34353;SDS011;20618;0.000;0.000;2024-01-11T00:23:48;13.95;;;4.85;;
34353;SDS011;20618;0.000;0.000;2024-01-11T00:26:14;11.95;;;4.97;;
34353;SDS011;20618;0.000;0.000;2024-01-11T00:28:40;11.82;;;4.95;;
34353;SDS011;20618;0.000;0.000;2024-01-11T00:31:07;11.10;;;4.95;;
34353;SDS011;20618;0.000;0.000;2024-01-11T00:33:33;10.85;;;5.18;;
34353;SDS011;20618;0.000;0.000;2024-01-11T00:35:59;9.85;;;5.03;;
34353;SDS011;20618;0.000;0.000;2024-01-11T00:38:25;10.05;;;5.13;;
34353;SDS011;20618;0.000;0.000;2024-01-11T00:40:51;9.43;;;4.63;;
34353;SDS011;20618;0.000;0.000;2024-01-11T00:43:17;9.18;;;4.32;;
34353;SDS011;20618;0.000;0.000;2024-01-11T00:45:44;10.63;;;4.60;;
34353;SDS011;20618;0.000;0.000;2024-01-11T00:48:11;10.93;;;4.72;;
34353;SDS011;20618;0.000;0.000;2024-01-11T00:50:37;13.05;;;4.75;;
34353;SDS011;20618;0.000;0.000;2024-01-11T00:53:03;10.88;;;5.15;;
34353;SDS011;20618;0.000;0.000;2024-01-11T00:55:30;9.23;;;4.20;;
34353;SDS011;20618;0.000;0.000;2024-01-11T00:57:56;11.70;;;5.20;;
34353;SDS011;20618;0.000;0.000;2024-01-11T01:00:22;9.98;;;4.60;;
34353;SDS011;20618;0.000;0.000;2024-01-11T01:02:48;9.07;;;4.50;;
34353;SDS011;20618;0.000;0.000;2024-01-11T01:05:14;10.95;;;4.25;;
34353;SDS011;20618;0.000;0.000;2024-01-11T01:07:40;8.88;;;4.70;;
34353;SDS011;20618;0.000;0.000;2024-01-11T01:10:07;9.18;;;4.70;;
34353;SDS011;20618;0.000;0.000;2024-01-11T01:12:34;10.23;;;4.68;;
34353;SDS011;20618;0.000;0.000;2024-01-11T01:15:00;11.65;;;4.53;;
34353;SDS011;20618;0.000;0.000;2024-01-11T01:17:26;10.65;;;5.40;;
34353;SDS011;20618;0.000;0.000;2024-01-11T01:19:52;13.10;;;5.00;;
34353;SDS011;20618;0.000;0.000;2024-01-11T01:22:18;7.97;;;4.40;;
34353;SDS011;20618;0.000;0.000;2024-01-11T01:24:44;10.20;;;4.50;;
34353;SDS011;20618;0.000;0.000;2024-01-11T01:27:11;10.50;;;4.75;;
34353;SDS011;20618;0.000;0.000;2024-01-11T01:29:37;9.00;;;4.70;;
34353;SDS011;20618;0.000;0.000;2024-01-11T01:32:04;9.25;;;4.72;;
34353;SDS011;20618;0.000;0.000;2024-01-11T01:34:30;7.75;;;4.40;;
34353;SDS011;20618;0.000;0.000;2024-01-11T01:36:56;10.18;;;4.60;;
34353;SDS011;20618;0.000;0.000;2024-01-11T01:39:22;10.05;;;4.95;;
34353;SDS011;20618;0.000;0.000;2024-01-11T01:41:48;10.55;;;5.03;;
34353;SDS011;20618;0.000;0.000;2024-01-11T01:44:15;9.85;;;4.97;;
34353;SDS011;20618;0.000;0.000;2024-01-11T01:46:41;6.72;;;4.25;;
34353;SDS011;20618;0.000;0.000;2024-01-11T01:49:07;7.93;;;4.75;;
34353;SDS011;20618;0.000;0.000;2024-01-11T01:51:33;10.20;;;4.90;;
34353;SDS011;20618;0.000;0.000;2024-01-11T01:53:59;7.18;;;4.78;;
34353;SDS011;20618;0.000;0.000;2024-01-11T01:56:27;7.95;;;4.40;;
34353;SDS011;20618;0.000;0.000;2024-01-11T01:58:54;10.50;;;5.10;;
34353;SDS011;20618;0.000;0.000;2024-01-11T02:01:21;9.02;;;4.70;;
34353;SDS011;20618;0.000;0.000;2024-01-11T02:03:49;10.05;;;4.93;;
34353;SDS011;20618;0.000;0.000;2024-01-11T02:06:16;9.80;;;4.30;;
34353;SDS011;20618;0.000;0.000;2024-01-11T02:08:43;7.85;;;4.28;;
34353;SDS011;20618;0.000;0.000;2024-01-11T02:11:09;7.45;;;4.13;;
34353;SDS011;20618;0.000;0.000;2024-01-11T02:13:36;9.88;;;4.68;;
34353;SDS011;20618;0.000;0.000;2024-01-11T02:16:03;6.45;;;4.13;;
34353;SDS011;20618;0.000;0.000;2024-01-11T02:18:29;8.52;;;4.88;;
34353;SDS011;20618;0.000;0.000;2024-01-11T02:20:56;7.05;;;4.00;;
34353;SDS011;20618;0.000;0.000;2024-01-11T02:23:24;7.40;;;4.47;;
34353;SDS011;20618;0.000;0.000;2024-01-11T02:25:50;10.50;;;5.00;;
34353;SDS011;20618;0.000;0.000;2024-01-11T02:28:17;11.15;;;4.60;;
34353;SDS011;20618;0.000;0.000;2024-01-11T02:30:43;11.43;;;4.72;;
34353;SDS011;20618;0.000;0.000;2024-01-11T02:33:09;8.10;;;4.65;;
34353;SDS011;20618;0.000;0.000;2024-01-11T02:35:37;7.65;;;4.60;;
34353;SDS011;20618;0.000;0.000;2024-01-11T02:38:04;10.57;;;4.90;;
34353;SDS011;20618;0.000;0.000;2024-01-11T02:40:31;7.97;;;4.55;;
34353;SDS011;20618;0.000;0.000;2024-01-11T02:42:57;10.27;;;4.75;;
34353;SDS011;20618;0.000;0.000;2024-01-11T02:45:24;7.35;;;4.63;;
34353;SDS011;20618;0.000;0.000;2024-01-11T02:47:50;9.60;;;5.20;;
34353;SDS011;20618;0.000;0.000;2024-01-11T02:50:16;8.30;;;4.47;;
34353;SDS011;20618;0.000;0.000;2024-01-11T02:52:42;10.63;;;4.47;;
34353;SDS011;20618;0.000;0.000;2024-01-11T02:55:08;8.45;;;4.65;;
34353;SDS011;20618;0.000;0.000;2024-01-11T02:57:34;12.38;;;4.93;;
34353;SDS011;20618;0.000;0.000;2024-01-11T03:00:01;10.00;;;4.43;;
34353;SDS011;20618;0.000;0.000;2024-01-11T03:02:27;7.75;;;4.18;;
34353;SDS011;20618;0.000;0.000;2024-01-11T03:04:53;7.95;;;5.03;;
34353;SDS011;20618;0.000;0.000;2024-01-11T03:07:19;8.48;;;4.78;;
34353;SDS011;20618;0.000;0.000;2024-01-11T03:09:45;7.72;;;4.25;;
34353;SDS011;20618;0.000;0.000;2024-01-11T03:12:12;7.30;;;4.20;;
34353;SDS011;20618;0.000;0.000;2024-01-11T03:14:38;7.97;;;4.65;;
34353;SDS011;20618;0.000;0.000;2024-01-11T03:17:04;8.95;;;5.15;;
34353;SDS011;20618;0.000;0.000;2024-01-11T03:19:31;8.60;;;4.60;;
34353;SDS011;20618;0.000;0.000;2024-01-11T03:21:57;7.63;;;4.35;;
34353;SDS011;20618;0.000;0.000;2024-01-11T03:24:23;11.02;;;4.85;;
34353;SDS011;20618;0.000;0.000;2024-01-11T03:26:49;11.38;;;4.57;;
34353;SDS011;20618;0.000;0.000;2024-01-11T03:29:15;6.95;;;4.65;;
34353;SDS011;20618;0.000;0.000;2024-01-11T03:31:41;9.77;;;4.63;;
34353;SDS011;20618;0.000;0.000;2024-01-11T03:34:09;7.88;;;4.45;;
34353;SDS011;20618;0.000;0.000;2024-01-11T03:36:36;7.72;;;4.13;;
34353;SDS011;20618;0.000;0.000;2024-01-11T03:39:02;7.60;;;4.25;;
34353;SDS011;20618;0.000;0.000;2024-01-11T03:41:28;8.60;;;4.57;;
34353;SDS011;20618;0.000;0.000;2024-01-11T03:43:54;7.10;;;4.72;;
34353;SDS011;20618;0.000;0.000;2024-01-11T03:46:20;10.13;;;5.05;;
34353;SDS011;20618;0.000;0.000;2024-01-11T03:48:47;8.10;;;4.45;;
34353;SDS011;20618;0.000;0.000;2024-01-11T03:51:13;8.73;;;4.70;;
34353;SDS011;20618;0.000;0.000;2024-01-11T03:53:39;9.65;;;4.55;;
34353;SDS011;20618;0.000;0.000;2024-01-11T03:56:05;9.05;;;4.10;;
34353;SDS011;20618;0.000;0.000;2024-01-11T03:58:31;8.57;;;4.70;;
34353;SDS011;20618;0.000;0.000;2024-01-11T04:00:58;6.55;;;4.50;;
34353;SDS011;20618;0.000;0.000;2024-01-11T04:03:24;8.02;;;4.80;;
34353;SDS011;20618;0.000;0.000;2024-01-11T04:05:51;9.73;;;4.75;;
34353;SDS011;20618;0.000;0.000;2024-01-11T04:08:17;6.82;;;4.25;;
34353;SDS011;20618;0.000;0.000;2024-01-11T04:10:43;6.57;;;4.43;;
34353;SDS011;20618;0.000;0.000;2024-01-11T04:13:09;7.93;;;4.57;;
34353;SDS011;20618;0.000;0.000;2024-01-11T04:15:35;8.30;;;4.38;;
34353;SDS011;20618;0.000;0.000;2024-01-11T04:18:01;9.57;;;4.88;;
34353;SDS011;20618;0.000;0.000;2024-01-11T04:20:27;8.07;;;4.68;;
34353;SDS011;20618;0.000;0.000;2024-01-11T04:22:54;9.40;;;4.45;;
34353;SDS011;20618;0.000;0.000;2024-01-11T04:25:20;7.63;;;4.43;;
34353;SDS011;20618;0.000;0.000;2024-01-11T04:27:47;8.95;;;4.82;;
34353;SDS011;20618;0.000;0.000;2024-01-11T04:30:13;10.73;;;4.53;;
34353;SDS011;20618;0.000;0.000;2024-01-11T04:32:39;9.05;;;4.13;;
34353;SDS011;20618;0.000;0.000;2024-01-11T04:35:05;7.93;;;4.50;;
34353;SDS011;20618;0.000;0.000;2024-01-11T04:37:32;7.10;;;4.32;;
34353;SDS011;20618;0.000;0.000;2024-01-11T04:39:59;8.10;;;4.47;;
34353;SDS011;20618;0.000;0.000;2024-01-11T04:42:26;6.60;;;4.20;;
34353;SDS011;20618;0.000;0.000;2024-01-11T04:44:53;6.80;;;3.92;;
34353;SDS011;20618;0.000;0.000;2024-01-11T04:47:19;9.32;;;4.40;;
34353;SDS011;20618;0.000;0.000;2024-01-11T04:49:45;8.27;;;4.50;;
34353;SDS011;20618;0.000;0.000;2024-01-11T04:52:11;7.80;;;4.60;;
34353;SDS011;20618;0.000;0.000;2024-01-11T04:54:37;7.38;;;4.10;;
34353;SDS011;20618;0.000;0.000;2024-01-11T04:57:04;7.07;;;4.18;;
34353;SDS011;20618;0.000;0.000;2024-01-11T04:59:30;7.45;;;4.72;;
34353;SDS011;20618;0.000;0.000;2024-01-11T05:01:56;8.75;;;4.53;;
34353;SDS011;20618;0.000;0.000;2024-01-11T05:04:22;7.22;;;4.30;;
34353;SDS011;20618;0.000;0.000;2024-01-11T05:06:50;8.10;;;4.63;;
34353;SDS011;20618;0.000;0.000;2024-01-11T05:09:16;7.43;;;4.30;;
34353;SDS011;20618;0.000;0.000;2024-01-11T05:11:42;8.38;;;4.40;;
34353;SDS011;20618;0.000;0.000;2024-01-11T05:14:09;6.65;;;4.25;;
34353;SDS011;20618;0.000;0.000;2024-01-11T05:16:35;6.47;;;4.18;;
34353;SDS011;20618;0.000;0.000;2024-01-11T05:19:01;8.30;;;4.25;;
34353;SDS011;20618;0.000;0.000;2024-01-11T05:21:27;8.18;;;4.50;;
34353;SDS011;20618;0.000;0.000;2024-01-11T05:23:53;6.63;;;3.65;;
34353;SDS011;20618;0.000;0.000;2024-01-11T05:26:20;7.22;;;4.10;;
34353;SDS011;20618;0.000;0.000;2024-01-11T05:28:46;7.75;;;4.40;;
34353;SDS011;20618;0.000;0.000;2024-01-11T05:31:13;10.85;;;5.50;;
34353;SDS011;20618;0.000;0.000;2024-01-11T05:33:43;7.40;;;4.50;;
34353;SDS011;20618;0.000;0.000;2024-01-11T05:36:09;9.30;;;4.32;;
34353;SDS011;20618;0.000;0.000;2024-01-11T05:38:35;5.68;;;4.07;;
34353;SDS011;20618;0.000;0.000;2024-01-11T05:41:01;8.73;;;4.20;;
34353;SDS011;20618;0.000;0.000;2024-01-11T05:43:28;7.15;;;4.50;;
34353;SDS011;20618;0.000;0.000;2024-01-11T05:45:54;8.43;;;4.68;;
34353;SDS011;20618;0.000;0.000;2024-01-11T05:48:20;10.45;;;4.47;;
34353;SDS011;20618;0.000;0.000;2024-01-11T05:50:46;8.80;;;4.53;;
34353;SDS011;20618;0.000;0.000;2024-01-11T05:53:12;8.30;;;4.07;;
34353;SDS011;20618;0.000;0.000;2024-01-11T05:55:39;7.78;;;4.35;;
34353;SDS011;20618;0.000;0.000;2024-01-11T05:58:05;6.90;;;3.97;;
34353;SDS011;20618;0.000;0.000;2024-01-11T06:03:13;7.57;;;4.85;;
34353;SDS011;20618;0.000;0.000;2024-01-11T06:05:39;7.82;;;4.00;;
34353;SDS011;20618;0.000;0.000;2024-01-11T06:08:05;8.75;;;4.32;;
34353;SDS011;20618;0.000;0.000;2024-01-11T06:10:31;5.18;;;3.90;;
34353;SDS011;20618;0.000;0.000;2024-01-11T06:12:58;6.53;;;4.22;;
34353;SDS011;20618;0.000;0.000;2024-01-11T06:15:24;6.75;;;4.15;;
34353;SDS011;20618;0.000;0.000;2024-01-11T06:17:50;7.45;;;4.35;;
34353;SDS011;20618;0.000;0.000;2024-01-11T06:20:16;8.30;;;4.53;;
34353;SDS011;20618;0.000;0.000;2024-01-11T06:22:42;7.03;;;3.97;;
34353;SDS011;20618;0.000;0.000;2024-01-11T06:25:09;8.93;;;4.95;;
34353;SDS011;20618;0.000;0.000;2024-01-11T06:27:35;7.40;;;4.28;;
34353;SDS011;20618;0.000;0.000;2024-01-11T06:30:01;7.25;;;4.53;;
34353;SDS011;20618;0.000;0.000;2024-01-11T06:32:27;6.18;;;4.10;;
34353;SDS011;20618;0.000;0.000;2024-01-11T06:34:53;7.10;;;4.00;;
34353;SDS011;20618;0.000;0.000;2024-01-11T06:37:19;7.93;;;4.20;;
34353;SDS011;20618;0.000;0.000;2024-01-11T06:39:46;7.45;;;4.32;;
34353;SDS011;20618;0.000;0.000;2024-01-11T06:42:12;5.43;;;3.90;;
34353;SDS011;20618;0.000;0.000;2024-01-11T06:44:38;5.97;;;3.92;;
34353;SDS011;20618;0.000;0.000;2024-01-11T06:47:04;8.60;;;4.53;;
34353;SDS011;20618;0.000;0.000;2024-01-11T06:49:30;7.95;;;4.50;;
34353;SDS011;20618;0.000;0.000;2024-01-11T06:51:57;6.57;;;3.72;;
34353;SDS011;20618;0.000;0.000;2024-01-11T06:54:23;5.93;;;4.00;;
34353;SDS011;20618;0.000;0.000;2024-01-11T06:56:49;8.90;;;4.05;;
34353;SDS011;20618;0.000;0.000;2024-01-11T06:59:15;7.13;;;4.05;;
34353;SDS011;20618;0.000;0.000;2024-01-11T07:01:41;7.53;;;3.95;;
34353;SDS011;20618;0.000;0.000;2024-01-11T07:04:07;6.18;;;4.22;;
34353;SDS011;20618;0.000;0.000;2024-01-11T07:06:33;8.10;;;4.07;;
34353;SDS011;20618;0.000;0.000;2024-01-11T07:09:00;7.35;;;4.25;;
34353;SDS011;20618;0.000;0.000;2024-01-11T07:11:26;8.00;;;3.92;;
34353;SDS011;20618;0.000;0.000;2024-01-11T07:13:52;7.00;;;4.00;;
34353;SDS011;20618;0.000;0.000;2024-01-11T07:16:19;7.38;;;4.20;;
34353;SDS011;20618;0.000;0.000;2024-01-11T07:18:45;6.50;;;4.00;;
34353;SDS011;20618;0.000;0.000;2024-01-11T07:21:11;6.93;;;3.90;;
34353;SDS011;20618;0.000;0.000;2024-01-11T07:23:37;7.53;;;4.03;;
34353;SDS011;20618;0.000;0.000;2024-01-11T07:26:04;7.80;;;4.68;;
34353;SDS011;20618;0.000;0.000;2024-01-11T07:28:30;6.93;;;4.47;;
34353;SDS011;20618;0.000;0.000;2024-01-11T07:30:56;8.85;;;4.40;;
34353;SDS011;20618;0.000;0.000;2024-01-11T07:33:22;9.77;;;4.47;;
34353;SDS011;20618;0.000;0.000;2024-01-11T07:35:48;8.50;;;4.30;;
34353;SDS011;20618;0.000;0.000;2024-01-11T07:38:15;7.95;;;3.90;;
34353;SDS011;20618;0.000;0.000;2024-01-11T07:40:42;7.65;;;4.35;;
34353;SDS011;20618;0.000;0.000;2024-01-11T07:43:08;9.98;;;4.55;;
34353;SDS011;20618;0.000;0.000;2024-01-11T07:45:34;6.40;;;3.72;;
34353;SDS011;20618;0.000;0.000;2024-01-11T07:48:00;8.32;;;4.35;;
34353;SDS011;20618;0.000;0.000;2024-01-11T07:50:29;7.57;;;4.10;;
34353;SDS011;20618;0.000;0.000;2024-01-11T07:52:55;7.57;;;4.10;;
34353;SDS011;20618;0.000;0.000;2024-01-11T07:55:21;9.55;;;4.45;;
34353;SDS011;20618;0.000;0.000;2024-01-11T07:57:49;11.82;;;4.45;;
34353;SDS011;20618;0.000;0.000;2024-01-11T08:00:15;8.60;;;4.57;;
34353;SDS011;20618;0.000;0.000;2024-01-11T08:02:41;12.38;;;4.10;;
34353;SDS011;20618;0.000;0.000;2024-01-11T08:05:08;8.40;;;4.13;;
34353;SDS011;20618;0.000;0.000;2024-01-11T08:07:34;16.88;;;5.13;;
34353;SDS011;20618;0.000;0.000;2024-01-11T08:10:00;5.60;;;3.90;;
34353;SDS011;20618;0.000;0.000;2024-01-11T08:12:29;9.07;;;3.88;;
34353;SDS011;20618;0.000;0.000;2024-01-11T08:14:55;9.55;;;4.30;;
34353;SDS011;20618;0.000;0.000;2024-01-11T08:17:21;8.65;;;4.55;;
34353;SDS011;20618;0.000;0.000;2024-01-11T08:19:48;14.68;;;4.60;;
34353;SDS011;20618;0.000;0.000;2024-01-11T08:22:14;10.77;;;4.80;;
34353;SDS011;20618;0.000;0.000;2024-01-11T08:24:41;8.73;;;3.95;;
34353;SDS011;20618;0.000;0.000;2024-01-11T08:27:07;13.30;;;4.35;;
34353;SDS011;20618;0.000;0.000;2024-01-11T08:29:33;9.52;;;4.40;;
34353;SDS011;20618;0.000;0.000;2024-01-11T08:31:59;11.77;;;4.40;;
34353;SDS011;20618;0.000;0.000;2024-01-11T08:34:29;12.30;;;4.35;;
34353;SDS011;20618;0.000;0.000;2024-01-11T08:36:55;26.30;;;5.60;;
34353;SDS011;20618;0.000;0.000;2024-01-11T08:39:22;12.88;;;4.05;;
34353;SDS011;20618;0.000;0.000;2024-01-11T08:41:48;12.35;;;4.82;;
34353;SDS011;20618;0.000;0.000;2024-01-11T08:44:14;12.05;;;5.38;;
34353;SDS011;20618;0.000;0.000;2024-01-11T08:46:40;14.80;;;4.72;;
34353;SDS011;20618;0.000;0.000;2024-01-11T08:49:06;12.30;;;4.72;;
34353;SDS011;20618;0.000;0.000;2024-01-11T08:51:33;14.68;;;4.53;;
34353;SDS011;20618;0.000;0.000;2024-01-11T08:53:59;15.43;;;4.57;;
34353;SDS011;20618;0.000;0.000;2024-01-11T08:56:26;20.75;;;5.32;;
34353;SDS011;20618;0.000;0.000;2024-01-11T08:58:53;19.00;;;5.32;;
34353;SDS011;20618;0.000;0.000;2024-01-11T09:01:19;15.90;;;4.93;;
34353;SDS011;20618;0.000;0.000;2024-01-11T09:03:45;15.27;;;4.88;;
34353;SDS011;20618;0.000;0.000;2024-01-11T09:06:13;14.05;;;4.25;;
34353;SDS011;20618;0.000;0.000;2024-01-11T09:08:39;18.33;;;4.85;;
34353;SDS011;20618;0.000;0.000;2024-01-11T09:11:08;21.45;;;5.07;;
34353;SDS011;20618;0.000;0.000;2024-01-11T09:13:37;12.70;;;4.18;;
34353;SDS011;20618;0.000;0.000;2024-01-11T09:16:05;13.88;;;4.50;;
34353;SDS011;20618;0.000;0.000;2024-01-11T09:18:32;17.75;;;4.65;;
34353;SDS011;20618;0.000;0.000;2024-01-11T09:20:58;22.75;;;5.35;;
34353;SDS011;20618;0.000;0.000;2024-01-11T09:23:24;17.95;;;5.15;;
34353;SDS011;20618;0.000;0.000;2024-01-11T09:25:50;16.45;;;5.22;;
34353;SDS011;20618;0.000;0.000;2024-01-11T09:28:16;13.90;;;4.57;;
34353;SDS011;20618;0.000;0.000;2024-01-11T09:30:43;16.55;;;5.35;;
34353;SDS011;20618;0.000;0.000;2024-01-11T09:33:10;20.65;;;5.22;;
34353;SDS011;20618;0.000;0.000;2024-01-11T09:35:36;16.50;;;5.80;;
34353;SDS011;20618;0.000;0.000;2024-01-11T09:38:02;17.50;;;4.60;;
34353;SDS011;20618;0.000;0.000;2024-01-11T09:40:29;15.25;;;5.28;;
34353;SDS011;20618;0.000;0.000;2024-01-11T09:42:55;13.15;;;4.90;;
34353;SDS011;20618;0.000;0.000;2024-01-11T09:45:22;15.43;;;4.68;;
34353;SDS011;20618;0.000;0.000;2024-01-11T09:47:48;15.43;;;4.88;;
34353;SDS011;20618;0.000;0.000;2024-01-11T09:50:16;16.73;;;5.70;;
34353;SDS011;20618;0.000;0.000;2024-01-11T09:52:46;16.08;;;4.80;;
34353;SDS011;20618;0.000;0.000;2024-01-11T09:57:41;20.77;;;5.05;;
34353;SDS011;20618;0.000;0.000;2024-01-11T10:00:09;15.82;;;4.78;;
34353;SDS011;20618;0.000;0.000;2024-01-11T10:02:39;17.63;;;5.10;;
34353;SDS011;20618;0.000;0.000;2024-01-11T10:05:05;13.68;;;4.97;;
34353;SDS011;20618;0.000;0.000;2024-01-11T10:07:32;13.93;;;6.10;;
34353;SDS011;20618;0.000;0.000;2024-01-11T10:09:58;16.58;;;5.30;;
34353;SDS011;20618;0.000;0.000;2024-01-11T10:12:26;18.98;;;5.47;;
34353;SDS011;20618;0.000;0.000;2024-01-11T10:14:53;17.25;;;5.68;;
34353;SDS011;20618;0.000;0.000;2024-01-11T10:17:19;15.25;;;5.03;;
34353;SDS011;20618;0.000;0.000;2024-01-11T10:19:45;17.88;;;5.32;;
34353;SDS011;20618;0.000;0.000;2024-01-11T10:22:12;18.35;;;5.53;;
34353;SDS011;20618;0.000;0.000;2024-01-11T10:24:41;20.70;;;5.70;;
34353;SDS011;20618;0.000;0.000;2024-01-11T10:27:10;17.30;;;5.40;;
34353;SDS011;20618;0.000;0.000;2024-01-11T10:29:37;16.85;;;5.72;;
34353;SDS011;20618;0.000;0.000;2024-01-11T10:32:03;17.45;;;4.65;;
34353;SDS011;20618;0.000;0.000;2024-01-11T10:34:30;13.75;;;4.70;;
34353;SDS011;20618;0.000;0.000;2024-01-11T10:36:56;17.08;;;5.38;;
34353;SDS011;20618;0.000;0.000;2024-01-11T10:39:24;25.23;;;5.35;;
34353;SDS011;20618;0.000;0.000;2024-01-11T10:41:51;18.60;;;4.72;;
34353;SDS011;20618;0.000;0.000;2024-01-11T10:44:21;16.83;;;5.38;;
34353;SDS011;20618;0.000;0.000;2024-01-11T10:46:48;15.88;;;5.25;;
34353;SDS011;20618;0.000;0.000;2024-01-11T10:49:19;17.48;;;5.80;;
34353;SDS011;20618;0.000;0.000;2024-01-11T10:51:52;23.52;;;6.60;;
34353;SDS011;20618;0.000;0.000;2024-01-11T10:54:19;21.05;;;5.90;;
34353;SDS011;20618;0.000;0.000;2024-01-11T10:56:46;31.05;;;7.22;;
34353;SDS011;20618;0.000;0.000;2024-01-11T10:59:13;36.30;;;6.72;;
34353;SDS011;20618;0.000;0.000;2024-01-11T11:01:40;18.90;;;5.30;;
34353;SDS011;20618;0.000;0.000;2024-01-11T11:04:06;20.10;;;5.75;;
34353;SDS011;20618;0.000;0.000;2024-01-11T11:06:34;11.93;;;5.43;;
34353;SDS011;20618;0.000;0.000;2024-01-11T11:09:01;22.27;;;5.82;;
34353;SDS011;20618;0.000;0.000;2024-01-11T11:11:30;13.60;;;5.18;;
34353;SDS011;20618;0.000;0.000;2024-01-11T11:14:00;16.10;;;5.53;;
34353;SDS011;20618;0.000;0.000;2024-01-11T11:16:27;16.77;;;5.00;;
34353;SDS011;20618;0.000;0.000;2024-01-11T11:18:53;19.90;;;5.18;;
34353;SDS011;20618;0.000;0.000;2024-01-11T11:21:20;19.25;;;5.35;;
34353;SDS011;20618;0.000;0.000;2024-01-11T11:23:46;23.95;;;6.20;;
34353;SDS011;20618;0.000;0.000;2024-01-11T11:26:16;19.02;;;5.15;;
34353;SDS011;20618;0.000;0.000;2024-01-11T11:28:43;21.53;;;5.27;;
34353;SDS011;20618;0.000;0.000;2024-01-11T11:31:12;21.67;;;5.32;;
34353;SDS011;20618;0.000;0.000;2024-01-11T11:33:38;14.82;;;5.25;;
34353;SDS011;20618;0.000;0.000;2024-01-11T11:36:06;18.13;;;4.90;;
34353;SDS011;20618;0.000;0.000;2024-01-11T11:38:39;19.00;;;5.55;;
34353;SDS011;20618;0.000;0.000;2024-01-11T11:41:05;22.67;;;5.60;;
34353;SDS011;20618;0.000;0.000;2024-01-11T11:43:31;20.83;;;5.95;;
34353;SDS011;20618;0.000;0.000;2024-01-11T11:45:57;24.63;;;5.88;;
34353;SDS011;20618;0.000;0.000;2024-01-11T11:51:02;19.95;;;6.22;;
34353;SDS011;20618;0.000;0.000;2024-01-11T11:55:58;21.45;;;5.95;;
34353;SDS011;20618;0.000;0.000;2024-01-11T11:58:24;16.20;;;4.85;;
34353;SDS011;20618;0.000;0.000;2024-01-11T12:00:50;20.55;;;5.55;;
34353;SDS011;20618;0.000;0.000;2024-01-11T12:03:16;13.32;;;4.93;;
34353;SDS011;20618;0.000;0.000;2024-01-11T12:05:42;18.75;;;5.72;;
34353;SDS011;20618;0.000;0.000;2024-01-11T12:08:09;16.02;;;5.05;;
34353;SDS011;20618;0.000;0.000;2024-01-11T12:10:35;17.40;;;4.90;;
34353;SDS011;20618;0.000;0.000;2024-01-11T12:13:02;18.00;;;5.28;;
34353;SDS011;20618;0.000;0.000;2024-01-11T12:15:29;19.20;;;6.20;;
34353;SDS011;20618;0.000;0.000;2024-01-11T12:17:58;20.98;;;5.88;;
34353;SDS011;20618;0.000;0.000;2024-01-11T12:20:24;20.42;;;5.40;;
34353;SDS011;20618;0.000;0.000;2024-01-11T12:22:50;19.25;;;5.85;;
34353;SDS011;20618;0.000;0.000;2024-01-11T12:25:16;16.35;;;5.25;;
34353;SDS011;20618;0.000;0.000;2024-01-11T12:27:44;16.38;;;5.25;;
34353;SDS011;20618;0.000;0.000;2024-01-11T12:30:10;14.48;;;5.45;;
34353;SDS011;20618;0.000;0.000;2024-01-11T12:32:39;23.55;;;5.28;;
34353;SDS011;20618;0.000;0.000;2024-01-11T12:35:06;16.92;;;4.95;;
34353;SDS011;20618;0.000;0.000;2024-01-11T12:37:32;19.30;;;5.53;;
34353;SDS011;20618;0.000;0.000;2024-01-11T12:39:58;21.33;;;5.43;;
34353;SDS011;20618;0.000;0.000;2024-01-11T12:42:28;24.55;;;5.75;;
34353;SDS011;20618;0.000;0.000;2024-01-11T12:44:55;16.60;;;5.77;;
34353;SDS011;20618;0.000;0.000;2024-01-11T12:47:21;22.20;;;5.22;;
34353;SDS011;20618;0.000;0.000;2024-01-11T12:49:47;28.63;;;6.28;;
34353;SDS011;20618;0.000;0.000;2024-01-11T12:52:16;16.08;;;5.53;;
34353;SDS011;20618;0.000;0.000;2024-01-11T12:54:43;16.92;;;4.53;;
34353;SDS011;20618;0.000;0.000;2024-01-11T12:57:19;18.27;;;5.22;;
34353;SDS011;20618;0.000;0.000;2024-01-11T12:59:46;26.77;;;6.03;;
34353;SDS011;20618;0.000;0.000;2024-01-11T13:02:12;18.48;;;5.20;;
34353;SDS011;20618;0.000;0.000;2024-01-11T13:04:48;24.40;;;4.75;;
34353;SDS011;20618;0.000;0.000;2024-01-11T13:07:16;14.25;;;5.25;;
34353;SDS011;20618;0.000;0.000;2024-01-11T13:09:42;19.65;;;5.43;;
34353;SDS011;20618;0.000;0.000;2024-01-11T13:12:08;22.60;;;5.95;;
34353;SDS011;20618;0.000;0.000;2024-01-11T13:14:34;23.17;;;5.10;;
34353;SDS011;20618;0.000;0.000;2024-01-11T13:17:00;27.50;;;5.22;;
34353;SDS011;20618;0.000;0.000;2024-01-11T13:19:27;26.55;;;6.78;;
34353;SDS011;20618;0.000;0.000;2024-01-11T13:21:53;25.02;;;5.80;;
34353;SDS011;20618;0.000;0.000;2024-01-11T13:24:19;22.02;;;5.57;;
34353;SDS011;20618;0.000;0.000;2024-01-11T13:26:45;19.55;;;5.50;;
34353;SDS011;20618;0.000;0.000;2024-01-11T13:29:11;18.35;;;4.95;;
34353;SDS011;20618;0.000;0.000;2024-01-11T13:31:37;21.38;;;5.95;;
34353;SDS011;20618;0.000;0.000;2024-01-11T13:34:04;18.13;;;5.40;;
34353;SDS011;20618;0.000;0.000;2024-01-11T13:36:30;19.05;;;5.32;;
34353;SDS011;20618;0.000;0.000;2024-01-11T13:38:56;19.75;;;5.78;;
34353;SDS011;20618;0.000;0.000;2024-01-11T13:41:22;20.55;;;6.20;;
34353;SDS011;20618;0.000;0.000;2024-01-11T13:43:48;18.27;;;5.70;;
34353;SDS011;20618;0.000;0.000;2024-01-11T13:46:14;18.50;;;4.88;;
34353;SDS011;20618;0.000;0.000;2024-01-11T13:48:44;23.60;;;5.38;;
34353;SDS011;20618;0.000;0.000;2024-01-11T13:51:12;17.70;;;4.68;;
34353;SDS011;20618;0.000;0.000;2024-01-11T13:53:39;22.70;;;5.45;;
34353;SDS011;20618;0.000;0.000;2024-01-11T13:56:05;17.30;;;5.47;;
34353;SDS011;20618;0.000;0.000;2024-01-11T13:58:31;17.55;;;5.05;;
34353;SDS011;20618;0.000;0.000;2024-01-11T14:00:57;14.45;;;4.93;;
34353;SDS011;20618;0.000;0.000;2024-01-11T14:03:24;21.48;;;5.30;;
34353;SDS011;20618;0.000;0.000;2024-01-11T14:05:50;16.30;;;4.57;;
34353;SDS011;20618;0.000;0.000;2024-01-11T14:08:17;19.48;;;5.28;;
34353;SDS011;20618;0.000;0.000;2024-01-11T14:10:43;18.25;;;5.18;;
34353;SDS011;20618;0.000;0.000;2024-01-11T14:13:09;20.45;;;5.65;;
34353;SDS011;20618;0.000;0.000;2024-01-11T14:15:35;19.02;;;5.00;;
34353;SDS011;20618;0.000;0.000;2024-01-11T14:18:02;20.60;;;5.75;;
34353;SDS011;20618;0.000;0.000;2024-01-11T14:20:28;17.77;;;5.15;;
34353;SDS011;20618;0.000;0.000;2024-01-11T14:22:56;17.55;;;6.00;;
34353;SDS011;20618;0.000;0.000;2024-01-11T14:25:22;20.38;;;5.30;;
34353;SDS011;20618;0.000;0.000;2024-01-11T14:27:54;16.58;;;5.38;;
34353;SDS011;20618;0.000;0.000;2024-01-11T14:30:21;16.17;;;5.35;;
34353;SDS011;20618;0.000;0.000;2024-01-11T14:32:47;27.10;;;4.78;;
34353;SDS011;20618;0.000;0.000;2024-01-11T14:35:14;22.90;;;4.85;;
34353;SDS011;20618;0.000;0.000;2024-01-11T14:37:40;19.75;;;5.20;;
34353;SDS011;20618;0.000;0.000;2024-01-11T14:40:08;21.15;;;5.35;;
34353;SDS011;20618;0.000;0.000;2024-01-11T14:42:38;20.23;;;5.32;;
34353;SDS011;20618;0.000;0.000;2024-01-11T14:45:04;18.00;;;4.97;;
34353;SDS011;20618;0.000;0.000;2024-01-11T14:47:31;17.13;;;5.50;;
34353;SDS011;20618;0.000;0.000;2024-01-11T14:49:58;21.55;;;5.70;;
34353;SDS011;20618;0.000;0.000;2024-01-11T14:52:24;19.48;;;5.68;;
34353;SDS011;20618;0.000;0.000;2024-01-11T14:54:51;21.42;;;5.80;;
34353;SDS011;20618;0.000;0.000;2024-01-11T14:57:17;17.70;;;5.10;;
34353;SDS011;20618;0.000;0.000;2024-01-11T14:59:45;20.40;;;5.47;;